sensor_id;sensor_type;location;lat;lon;timestamp;temperature;humidity
23073;DHT22;34865;51.046;3.732;2022-09-17T00:02:20;12.00;99.90
23073;DHT22;34865;51.046;3.732;2022-09-17T00:04:47;12.00;99.90
23073;DHT22;34865;51.046;3.732;2022-09-17T00:07:13;11.90;99.90
23073;DHT22;34865;51.046;3.732;2022-09-17T00:09:40;11.90;99.90
23073;DHT22;34865;51.046;3.732;2022-09-17T00:12:06;11.80;99.90
23073;DHT22;34865;51.046;3.732;2022-09-17T00:14:31;11.70;99.90
23073;DHT22;34865;51.046;3.732;2022-09-17T00:16:57;11.70;99.90
23073;DHT22;34865;51.046;3.732;2022-09-17T00:19:23;11.80;99.90
23073;DHT22;34865;51.046;3.732;2022-09-17T00:21:50;11.90;99.90
23073;DHT22;34865;51.046;3.732;2022-09-17T00:24:16;11.90;99.90
23073;DHT22;34865;51.046;3.732;2022-09-17T00:26:42;11.90;99.90
23073;DHT22;34865;51.046;3.732;2022-09-17T00:29:09;12.00;99.90
23073;DHT22;34865;51.046;3.732;2022-09-17T00:31:35;12.10;99.90
23073;DHT22;34865;51.046;3.732;2022-09-17T00:34:02;12.10;99.90
23073;DHT22;34865;51.046;3.732;2022-09-17T00:36:28;12.10;99.90
23073;DHT22;34865;51.046;3.732;2022-09-17T00:38:56;12.10;99.90
23073;DHT22;34865;51.046;3.732;2022-09-17T00:41:23;12.00;99.90
23073;DHT22;34865;51.046;3.732;2022-09-17T00:43:52;11.90;99.90
23073;DHT22;34865;51.046;3.732;2022-09-17T00:46:27;11.90;99.90
23073;DHT22;34865;51.046;3.732;2022-09-17T00:48:57;11.90;99.90
23073;DHT22;34865;51.046;3.732;2022-09-17T00:51:34;11.90;99.90
23073;DHT22;34865;51.046;3.732;2022-09-17T00:54:02;11.80;99.90
23073;DHT22;34865;51.046;3.732;2022-09-17T00:56:31;11.80;99.90
23073;DHT22;34865;51.046;3.732;2022-09-17T00:59:00;11.80;99.90
23073;DHT22;34865;51.046;3.732;2022-09-17T01:01:27;11.90;99.90
23073;DHT22;34865;51.046;3.732;2022-09-17T01:03:53;11.90;99.90
23073;DHT22;34865;51.046;3.732;2022-09-17T01:06:39;12.00;99.90
23073;DHT22;34865;51.046;3.732;2022-09-17T01:09:40;12.10;99.90
23073;DHT22;34865;51.046;3.732;2022-09-17T01:15:38;12.20;99.90
23073;DHT22;34865;51.046;3.732;2022-09-17T01:18:31;12.20;99.90
23073;DHT22;34865;51.046;3.732;2022-09-17T01:32:41;12.30;99.90
23073;DHT22;34865;51.046;3.732;2022-09-17T01:35:20;12.40;99.90
23073;DHT22;34865;51.046;3.732;2022-09-17T01:38:11;12.50;99.90
23073;DHT22;34865;51.046;3.732;2022-09-17T01:40:52;12.70;99.90
23073;DHT22;34865;51.046;3.732;2022-09-17T01:43:45;12.80;99.90
23073;DHT22;34865;51.046;3.732;2022-09-17T01:46:25;12.80;99.90
23073;DHT22;34865;51.046;3.732;2022-09-17T01:48:57;12.80;99.90
23073;DHT22;34865;51.046;3.732;2022-09-17T01:51:26;12.80;99.90
23073;DHT22;34865;51.046;3.732;2022-09-17T01:54:06;12.80;99.90
23073;DHT22;34865;51.046;3.732;2022-09-17T01:56:48;12.70;99.90
23073;DHT22;34865;51.046;3.732;2022-09-17T02:01:46;12.60;99.90
23073;DHT22;34865;51.046;3.732;2022-09-17T02:04:18;12.60;99.90
23073;DHT22;34865;51.046;3.732;2022-09-17T02:06:54;12.50;99.90
23073;DHT22;34865;51.046;3.732;2022-09-17T02:09:35;12.50;99.90
23073;DHT22;34865;51.046;3.732;2022-09-17T02:12:06;12.50;99.90
23073;DHT22;34865;51.046;3.732;2022-09-17T02:14:40;12.20;99.90
23073;DHT22;34865;51.046;3.732;2022-09-17T02:17:29;12.00;99.90
23073;DHT22;34865;51.046;3.732;2022-09-17T02:19:57;12.00;99.90
23073;DHT22;34865;51.046;3.732;2022-09-17T02:22:38;12.20;99.90
23073;DHT22;34865;51.046;3.732;2022-09-17T02:28:00;12.30;99.90
23073;DHT22;34865;51.046;3.732;2022-09-17T02:30:26;12.40;99.90
23073;DHT22;34865;51.046;3.732;2022-09-17T02:32:53;12.20;99.90
23073;DHT22;34865;51.046;3.732;2022-09-17T02:35:19;12.20;99.90
23073;DHT22;34865;51.046;3.732;2022-09-17T02:37:45;12.20;99.90
23073;DHT22;34865;51.046;3.732;2022-09-17T02:40:15;12.30;99.90
23073;DHT22;34865;51.046;3.732;2022-09-17T02:45:48;12.30;99.90
23073;DHT22;34865;51.046;3.732;2022-09-17T02:48:42;12.20;99.90
23073;DHT22;34865;51.046;3.732;2022-09-17T02:59:25;12.20;99.90
23073;DHT22;34865;51.046;3.732;2022-09-17T03:01:59;12.10;99.90
23073;DHT22;34865;51.046;3.732;2022-09-17T03:04:27;12.10;99.90
23073;DHT22;34865;51.046;3.732;2022-09-17T03:06:54;12.10;99.90
23073;DHT22;34865;51.046;3.732;2022-09-17T03:09:20;11.90;99.90
23073;DHT22;34865;51.046;3.732;2022-09-17T03:11:46;12.00;99.90
23073;DHT22;34865;51.046;3.732;2022-09-17T03:14:11;12.10;99.90
23073;DHT22;34865;51.046;3.732;2022-09-17T03:16:38;12.10;99.90
23073;DHT22;34865;51.046;3.732;2022-09-17T03:19:04;12.20;99.90
23073;DHT22;34865;51.046;3.732;2022-09-17T03:21:29;12.30;99.90
23073;DHT22;34865;51.046;3.732;2022-09-17T03:23:55;12.30;99.90
23073;DHT22;34865;51.046;3.732;2022-09-17T03:26:21;12.40;99.90
23073;DHT22;34865;51.046;3.732;2022-09-17T03:28:47;12.50;99.90
23073;DHT22;34865;51.046;3.732;2022-09-17T03:31:12;12.20;99.90
23073;DHT22;34865;51.046;3.732;2022-09-17T03:33:38;12.30;99.90
23073;DHT22;34865;51.046;3.732;2022-09-17T03:36:03;12.30;99.90
23073;DHT22;34865;51.046;3.732;2022-09-17T03:38:29;12.30;99.90
23073;DHT22;34865;51.046;3.732;2022-09-17T03:41:03;12.40;99.90
23073;DHT22;34865;51.046;3.732;2022-09-17T03:43:29;12.20;99.90
23073;DHT22;34865;51.046;3.732;2022-09-17T03:45:55;12.30;99.90
23073;DHT22;34865;51.046;3.732;2022-09-17T03:48:21;12.30;99.90
23073;DHT22;34865;51.046;3.732;2022-09-17T03:50:47;12.40;99.90
23073;DHT22;34865;51.046;3.732;2022-09-17T03:53:13;12.30;99.90
23073;DHT22;34865;51.046;3.732;2022-09-17T03:55:39;12.10;99.90
23073;DHT22;34865;51.046;3.732;2022-09-17T03:58:04;12.00;99.90
23073;DHT22;34865;51.046;3.732;2022-09-17T04:00:30;12.10;99.90
23073;DHT22;34865;51.046;3.732;2022-09-17T04:02:56;12.20;99.90
23073;DHT22;34865;51.046;3.732;2022-09-17T04:05:21;12.30;99.90
23073;DHT22;34865;51.046;3.732;2022-09-17T04:07:48;12.20;99.90
23073;DHT22;34865;51.046;3.732;2022-09-17T04:10:14;12.10;99.90
23073;DHT22;34865;51.046;3.732;2022-09-17T04:12:40;12.00;99.90
23073;DHT22;34865;51.046;3.732;2022-09-17T04:15:06;11.90;99.90
23073;DHT22;34865;51.046;3.732;2022-09-17T04:17:33;11.80;99.90
23073;DHT22;34865;51.046;3.732;2022-09-17T04:19:58;11.70;99.90
23073;DHT22;34865;51.046;3.732;2022-09-17T04:22:25;11.60;99.90
23073;DHT22;34865;51.046;3.732;2022-09-17T04:24:53;11.80;99.90
23073;DHT22;34865;51.046;3.732;2022-09-17T04:27:19;11.80;99.90
23073;DHT22;34865;51.046;3.732;2022-09-17T04:29:44;11.70;99.90
23073;DHT22;34865;51.046;3.732;2022-09-17T04:32:10;11.80;99.90
23073;DHT22;34865;51.046;3.732;2022-09-17T04:34:36;11.90;99.90
23073;DHT22;34865;51.046;3.732;2022-09-17T04:37:01;11.90;99.90
23073;DHT22;34865;51.046;3.732;2022-09-17T04:39:27;11.90;99.90
23073;DHT22;34865;51.046;3.732;2022-09-17T04:41:53;11.80;99.90
23073;DHT22;34865;51.046;3.732;2022-09-17T04:44:19;11.80;99.90
23073;DHT22;34865;51.046;3.732;2022-09-17T04:46:45;11.70;99.90
23073;DHT22;34865;51.046;3.732;2022-09-17T04:49:10;11.80;99.90
23073;DHT22;34865;51.046;3.732;2022-09-17T04:51:37;12.10;99.90
23073;DHT22;34865;51.046;3.732;2022-09-17T04:54:03;12.20;99.90
23073;DHT22;34865;51.046;3.732;2022-09-17T04:56:28;12.30;99.90
23073;DHT22;34865;51.046;3.732;2022-09-17T04:58:54;12.40;99.90
23073;DHT22;34865;51.046;3.732;2022-09-17T05:01:21;12.30;99.90
23073;DHT22;34865;51.046;3.732;2022-09-17T05:03:47;12.20;99.90
23073;DHT22;34865;51.046;3.732;2022-09-17T05:06:13;12.20;99.90
23073;DHT22;34865;51.046;3.732;2022-09-17T05:08:38;12.10;99.90
23073;DHT22;34865;51.046;3.732;2022-09-17T05:11:04;12.10;99.90
23073;DHT22;34865;51.046;3.732;2022-09-17T05:13:30;12.20;99.90
23073;DHT22;34865;51.046;3.732;2022-09-17T05:15:55;12.30;99.90
23073;DHT22;34865;51.046;3.732;2022-09-17T05:18:21;12.20;99.90
23073;DHT22;34865;51.046;3.732;2022-09-17T05:20:47;12.00;99.90
23073;DHT22;34865;51.046;3.732;2022-09-17T05:23:15;12.20;99.90
23073;DHT22;34865;51.046;3.732;2022-09-17T05:25:42;12.00;99.90
23073;DHT22;34865;51.046;3.732;2022-09-17T05:28:07;12.00;99.90
23073;DHT22;34865;51.046;3.732;2022-09-17T05:30:33;12.10;99.90
23073;DHT22;34865;51.046;3.732;2022-09-17T05:33:00;12.30;99.90
23073;DHT22;34865;51.046;3.732;2022-09-17T05:35:27;12.10;99.90
23073;DHT22;34865;51.046;3.732;2022-09-17T05:38:00;12.10;99.90
23073;DHT22;34865;51.046;3.732;2022-09-17T05:40:26;12.00;99.90
23073;DHT22;34865;51.046;3.732;2022-09-17T05:42:57;12.00;99.90
23073;DHT22;34865;51.046;3.732;2022-09-17T05:45:23;12.30;99.90
23073;DHT22;34865;51.046;3.732;2022-09-17T05:47:54;12.40;99.90
23073;DHT22;34865;51.046;3.732;2022-09-17T05:50:19;12.40;99.90
23073;DHT22;34865;51.046;3.732;2022-09-17T05:52:45;12.60;99.90
23073;DHT22;34865;51.046;3.732;2022-09-17T05:55:10;12.50;99.90
23073;DHT22;34865;51.046;3.732;2022-09-17T05:57:36;12.30;99.90
23073;DHT22;34865;51.046;3.732;2022-09-17T06:00:03;12.30;99.90
23073;DHT22;34865;51.046;3.732;2022-09-17T06:02:29;12.10;99.90
23073;DHT22;34865;51.046;3.732;2022-09-17T06:04:55;12.10;99.90
23073;DHT22;34865;51.046;3.732;2022-09-17T06:07:25;12.20;99.90
23073;DHT22;34865;51.046;3.732;2022-09-17T06:09:50;12.40;99.90
23073;DHT22;34865;51.046;3.732;2022-09-17T06:12:16;12.20;99.90
23073;DHT22;34865;51.046;3.732;2022-09-17T06:14:41;12.10;99.90
23073;DHT22;34865;51.046;3.732;2022-09-17T06:17:07;12.20;99.90
23073;DHT22;34865;51.046;3.732;2022-09-17T06:19:33;12.10;99.90
23073;DHT22;34865;51.046;3.732;2022-09-17T06:21:58;12.30;99.90
23073;DHT22;34865;51.046;3.732;2022-09-17T06:24:24;12.40;99.90
23073;DHT22;34865;51.046;3.732;2022-09-17T06:26:51;12.40;99.90
23073;DHT22;34865;51.046;3.732;2022-09-17T06:29:16;12.50;99.90
23073;DHT22;34865;51.046;3.732;2022-09-17T06:31:43;12.30;99.90
23073;DHT22;34865;51.046;3.732;2022-09-17T06:34:09;12.20;99.90
23073;DHT22;34865;51.046;3.732;2022-09-17T06:36:35;12.20;99.90
23073;DHT22;34865;51.046;3.732;2022-09-17T06:39:01;12.30;99.90
23073;DHT22;34865;51.046;3.732;2022-09-17T06:41:27;12.20;99.90
23073;DHT22;34865;51.046;3.732;2022-09-17T06:43:52;12.10;99.90
23073;DHT22;34865;51.046;3.732;2022-09-17T06:46:18;12.10;99.90
23073;DHT22;34865;51.046;3.732;2022-09-17T06:48:44;12.10;99.90
23073;DHT22;34865;51.046;3.732;2022-09-17T06:51:10;12.30;99.90
23073;DHT22;34865;51.046;3.732;2022-09-17T06:53:36;12.30;99.90
23073;DHT22;34865;51.046;3.732;2022-09-17T06:56:03;12.10;99.90
23073;DHT22;34865;51.046;3.732;2022-09-17T06:58:30;12.10;99.90
23073;DHT22;34865;51.046;3.732;2022-09-17T07:01:00;12.20;99.90
23073;DHT22;34865;51.046;3.732;2022-09-17T07:03:27;12.10;99.90
23073;DHT22;34865;51.046;3.732;2022-09-17T07:05:53;12.10;99.90
23073;DHT22;34865;51.046;3.732;2022-09-17T07:08:18;12.20;99.90
23073;DHT22;34865;51.046;3.732;2022-09-17T07:10:44;12.30;99.90
23073;DHT22;34865;51.046;3.732;2022-09-17T07:13:09;12.50;99.90
23073;DHT22;34865;51.046;3.732;2022-09-17T07:15:35;12.40;99.90
23073;DHT22;34865;51.046;3.732;2022-09-17T07:18:10;12.40;99.90
23073;DHT22;34865;51.046;3.732;2022-09-17T07:20:36;12.40;99.90
23073;DHT22;34865;51.046;3.732;2022-09-17T07:23:03;12.50;99.90
23073;DHT22;34865;51.046;3.732;2022-09-17T07:25:29;12.80;99.90
23073;DHT22;34865;51.046;3.732;2022-09-17T07:27:54;12.90;99.90
23073;DHT22;34865;51.046;3.732;2022-09-17T07:30:21;12.90;99.90
23073;DHT22;34865;51.046;3.732;2022-09-17T07:32:46;12.60;99.90
23073;DHT22;34865;51.046;3.732;2022-09-17T07:35:12;12.50;99.90
23073;DHT22;34865;51.046;3.732;2022-09-17T07:37:38;12.30;99.90
23073;DHT22;34865;51.046;3.732;2022-09-17T07:40:04;12.40;99.90
23073;DHT22;34865;51.046;3.732;2022-09-17T07:42:33;12.30;99.90
23073;DHT22;34865;51.046;3.732;2022-09-17T07:44:59;12.40;99.90
23073;DHT22;34865;51.046;3.732;2022-09-17T07:47:25;12.30;99.90
23073;DHT22;34865;51.046;3.732;2022-09-17T07:49:51;12.20;99.90
23073;DHT22;34865;51.046;3.732;2022-09-17T07:52:16;12.20;99.90
23073;DHT22;34865;51.046;3.732;2022-09-17T07:54:42;12.50;99.90
23073;DHT22;34865;51.046;3.732;2022-09-17T07:57:07;12.80;99.90
23073;DHT22;34865;51.046;3.732;2022-09-17T07:59:33;13.30;99.90
23073;DHT22;34865;51.046;3.732;2022-09-17T08:01:59;13.50;99.90
23073;DHT22;34865;51.046;3.732;2022-09-17T08:04:24;13.70;99.90
23073;DHT22;34865;51.046;3.732;2022-09-17T08:06:50;13.80;99.90
23073;DHT22;34865;51.046;3.732;2022-09-17T08:09:16;13.60;99.90
23073;DHT22;34865;51.046;3.732;2022-09-17T08:11:43;13.40;99.90
23073;DHT22;34865;51.046;3.732;2022-09-17T08:14:11;13.10;99.90
23073;DHT22;34865;51.046;3.732;2022-09-17T08:16:37;13.10;99.90
23073;DHT22;34865;51.046;3.732;2022-09-17T08:19:03;13.10;99.90
23073;DHT22;34865;51.046;3.732;2022-09-17T08:21:28;13.30;99.90
23073;DHT22;34865;51.046;3.732;2022-09-17T08:23:54;13.80;99.90
23073;DHT22;34865;51.046;3.732;2022-09-17T08:26:21;15.30;99.90
23073;DHT22;34865;51.046;3.732;2022-09-17T08:28:54;16.60;99.90
23073;DHT22;34865;51.046;3.732;2022-09-17T08:31:22;18.80;99.90
23073;DHT22;34865;51.046;3.732;2022-09-17T08:33:48;19.70;99.90
23073;DHT22;34865;51.046;3.732;2022-09-17T08:36:17;21.30;99.90
23073;DHT22;34865;51.046;3.732;2022-09-17T08:38:43;21.10;99.90
23073;DHT22;34865;51.046;3.732;2022-09-17T08:46:15;18.10;99.90
23073;DHT22;34865;51.046;3.732;2022-09-17T08:49:00;17.80;99.90
23073;DHT22;34865;51.046;3.732;2022-09-17T09:00:29;15.50;99.90
23073;DHT22;34865;51.046;3.732;2022-09-17T09:05:49;14.50;99.90
23073;DHT22;34865;51.046;3.732;2022-09-17T09:10:52;13.70;99.90
23073;DHT22;34865;51.046;3.732;2022-09-17T09:13:21;13.40;99.90
23073;DHT22;34865;51.046;3.732;2022-09-17T09:16:01;13.00;99.90
23073;DHT22;34865;51.046;3.732;2022-09-17T09:18:34;12.80;99.90
23073;DHT22;34865;51.046;3.732;2022-09-17T09:21:29;12.80;99.90
23073;DHT22;34865;51.046;3.732;2022-09-17T09:24:22;12.70;99.90
23073;DHT22;34865;51.046;3.732;2022-09-17T09:35:18;12.40;99.90
23073;DHT22;34865;51.046;3.732;2022-09-17T09:51:30;12.40;99.90
23073;DHT22;34865;51.046;3.732;2022-09-17T09:57:04;12.60;99.90
23073;DHT22;34865;51.046;3.732;2022-09-17T09:59:32;12.70;99.90
23073;DHT22;34865;51.046;3.732;2022-09-17T10:01:58;12.60;99.90
23073;DHT22;34865;51.046;3.732;2022-09-17T10:04:27;12.70;99.90
23073;DHT22;34865;51.046;3.732;2022-09-17T10:06:58;12.90;99.90
23073;DHT22;34865;51.046;3.732;2022-09-17T10:09:24;13.00;99.90
23073;DHT22;34865;51.046;3.732;2022-09-17T10:12:21;13.20;99.90
23073;DHT22;34865;51.046;3.732;2022-09-17T10:14:47;13.50;99.90
23073;DHT22;34865;51.046;3.732;2022-09-17T10:17:16;14.10;99.90
23073;DHT22;34865;51.046;3.732;2022-09-17T10:19:44;14.00;99.90
23073;DHT22;34865;51.046;3.732;2022-09-17T10:22:31;13.90;99.90
23073;DHT22;34865;51.046;3.732;2022-09-17T10:24:59;13.70;99.90
23073;DHT22;34865;51.046;3.732;2022-09-17T10:27:27;13.50;99.90
23073;DHT22;34865;51.046;3.732;2022-09-17T10:30:16;13.30;99.90
23073;DHT22;34865;51.046;3.732;2022-09-17T10:32:42;13.30;99.90
23073;DHT22;34865;51.046;3.732;2022-09-17T10:37:46;13.80;99.90
23073;DHT22;34865;51.046;3.732;2022-09-17T10:45:38;13.70;99.90
23073;DHT22;34865;51.046;3.732;2022-09-17T10:48:14;13.40;99.90
23073;DHT22;34865;51.046;3.732;2022-09-17T10:50:40;13.30;99.90
23073;DHT22;34865;51.046;3.732;2022-09-17T10:53:15;13.40;99.90
23073;DHT22;34865;51.046;3.732;2022-09-17T10:55:57;13.40;99.90
23073;DHT22;34865;51.046;3.732;2022-09-17T11:04:28;13.30;99.90
23073;DHT22;34865;51.046;3.732;2022-09-17T11:10:00;13.70;99.90
23073;DHT22;34865;51.046;3.732;2022-09-17T11:12:42;13.80;99.90
23073;DHT22;34865;51.046;3.732;2022-09-17T11:18:01;14.00;99.90
23073;DHT22;34865;51.046;3.732;2022-09-17T11:29:33;15.40;99.90
23073;DHT22;34865;51.046;3.732;2022-09-17T11:32:31;15.50;99.90
23073;DHT22;34865;51.046;3.732;2022-09-17T11:35:28;14.80;99.90
23073;DHT22;34865;51.046;3.732;2022-09-17T11:38:03;14.50;99.90
23073;DHT22;34865;51.046;3.732;2022-09-17T11:40:43;14.30;99.90
23073;DHT22;34865;51.046;3.732;2022-09-17T11:43:25;14.30;99.90
23073;DHT22;34865;51.046;3.732;2022-09-17T11:56:45;15.00;99.90
23073;DHT22;34865;51.046;3.732;2022-09-17T11:59:37;15.10;99.90
23073;DHT22;34865;51.046;3.732;2022-09-17T12:02:24;15.20;99.90
23073;DHT22;34865;51.046;3.732;2022-09-17T12:04:54;15.20;99.90
23073;DHT22;34865;51.046;3.732;2022-09-17T12:07:31;15.30;99.90
23073;DHT22;34865;51.046;3.732;2022-09-17T12:10:40;15.40;99.90
23073;DHT22;34865;51.046;3.732;2022-09-17T12:13:15;15.50;99.90
23073;DHT22;34865;51.046;3.732;2022-09-17T12:15:45;15.40;99.90
23073;DHT22;34865;51.046;3.732;2022-09-17T12:18:23;15.40;99.90
23073;DHT22;34865;51.046;3.732;2022-09-17T12:20:55;15.50;99.90
23073;DHT22;34865;51.046;3.732;2022-09-17T12:23:33;15.70;99.90
23073;DHT22;34865;51.046;3.732;2022-09-17T12:26:19;15.70;99.90
23073;DHT22;34865;51.046;3.732;2022-09-17T12:31:41;15.80;99.90
23073;DHT22;34865;51.046;3.732;2022-09-17T12:34:25;15.90;99.90
23073;DHT22;34865;51.046;3.732;2022-09-17T12:58:09;16.80;99.90
23073;DHT22;34865;51.046;3.732;2022-09-17T13:00:51;17.00;99.90
23073;DHT22;34865;51.046;3.732;2022-09-17T13:03:23;15.80;99.90
23073;DHT22;34865;51.046;3.732;2022-09-17T13:13:46;14.10;99.90
23073;DHT22;34865;51.046;3.732;2022-09-17T13:22:15;15.00;99.90
23073;DHT22;34865;51.046;3.732;2022-09-17T13:24:37;15.10;99.90
23073;DHT22;34865;51.046;3.732;2022-09-17T13:27:04;15.00;99.90
23073;DHT22;34865;51.046;3.732;2022-09-17T13:40:33;14.30;99.90
23073;DHT22;34865;51.046;3.732;2022-09-17T13:45:28;14.30;99.90
23073;DHT22;34865;51.046;3.732;2022-09-17T13:48:07;14.20;99.90
23073;DHT22;34865;51.046;3.732;2022-09-17T13:50:38;14.20;99.90
23073;DHT22;34865;51.046;3.732;2022-09-17T13:53:08;14.30;99.90
23073;DHT22;34865;51.046;3.732;2022-09-17T13:55:44;14.30;99.90
23073;DHT22;34865;51.046;3.732;2022-09-17T14:00:51;14.50;99.90
23073;DHT22;34865;51.046;3.732;2022-09-17T14:05:57;14.70;99.90
23073;DHT22;34865;51.046;3.732;2022-09-17T14:13:52;14.50;99.90
23073;DHT22;34865;51.046;3.732;2022-09-17T14:16:34;14.30;99.90
23073;DHT22;34865;51.046;3.732;2022-09-17T14:21:30;13.90;99.90
23073;DHT22;34865;51.046;3.732;2022-09-17T14:23:58;13.60;99.90
23073;DHT22;34865;51.046;3.732;2022-09-17T14:31:48;13.30;99.90
23073;DHT22;34865;51.046;3.732;2022-09-17T14:34:22;13.40;99.90
23073;DHT22;34865;51.046;3.732;2022-09-17T14:36:50;13.60;99.90
23073;DHT22;34865;51.046;3.732;2022-09-17T14:39:25;13.70;99.90
23073;DHT22;34865;51.046;3.732;2022-09-17T14:41:53;13.80;99.90
23073;DHT22;34865;51.046;3.732;2022-09-17T14:44:21;13.90;99.90
23073;DHT22;34865;51.046;3.732;2022-09-17T14:47:02;14.00;99.90
23073;DHT22;34865;51.046;3.732;2022-09-17T14:49:35;14.00;99.90
23073;DHT22;34865;51.046;3.732;2022-09-17T14:52:18;14.10;99.90
23073;DHT22;34865;51.046;3.732;2022-09-17T14:54:44;14.10;99.90
23073;DHT22;34865;51.046;3.732;2022-09-17T14:57:23;13.90;99.90
23073;DHT22;34865;51.046;3.732;2022-09-17T14:59:58;13.80;99.90
23073;DHT22;34865;51.046;3.732;2022-09-17T15:04:56;13.60;99.90
23073;DHT22;34865;51.046;3.732;2022-09-17T15:07:23;13.50;99.90
23073;DHT22;34865;51.046;3.732;2022-09-17T15:09:48;13.50;99.90
23073;DHT22;34865;51.046;3.732;2022-09-17T15:12:23;13.50;99.90
23073;DHT22;34865;51.046;3.732;2022-09-17T15:14:51;13.40;99.90
23073;DHT22;34865;51.046;3.732;2022-09-17T15:17:18;13.30;99.90
23073;DHT22;34865;51.046;3.732;2022-09-17T15:19:55;13.30;99.90
23073;DHT22;34865;51.046;3.732;2022-09-17T15:22:37;13.30;99.90
23073;DHT22;34865;51.046;3.732;2022-09-17T15:25:04;13.20;99.90
23073;DHT22;34865;51.046;3.732;2022-09-17T15:30:14;12.90;99.90
23073;DHT22;34865;51.046;3.732;2022-09-17T15:32:48;12.80;99.90
23073;DHT22;34865;51.046;3.732;2022-09-17T15:37:47;12.90;99.90
23073;DHT22;34865;51.046;3.732;2022-09-17T15:42:50;12.80;99.90
23073;DHT22;34865;51.046;3.732;2022-09-17T15:45:19;12.90;99.90
23073;DHT22;34865;51.046;3.732;2022-09-17T15:47:54;13.00;99.90
23073;DHT22;34865;51.046;3.732;2022-09-17T15:50:28;13.00;99.90
23073;DHT22;34865;51.046;3.732;2022-09-17T15:53:12;12.90;99.90
23073;DHT22;34865;51.046;3.732;2022-09-17T15:58:24;13.00;99.90
23073;DHT22;34865;51.046;3.732;2022-09-17T16:08:47;13.00;99.90
23073;DHT22;34865;51.046;3.732;2022-09-17T16:11:14;13.10;99.90
23073;DHT22;34865;51.046;3.732;2022-09-17T16:13:40;13.20;99.90
23073;DHT22;34865;51.046;3.732;2022-09-17T16:16:07;13.10;99.90
23073;DHT22;34865;51.046;3.732;2022-09-17T16:18:33;13.10;99.90
23073;DHT22;34865;51.046;3.732;2022-09-17T16:20:59;13.10;99.90
23073;DHT22;34865;51.046;3.732;2022-09-17T16:23:24;13.10;99.90
23073;DHT22;34865;51.046;3.732;2022-09-17T16:25:51;13.10;99.90
23073;DHT22;34865;51.046;3.732;2022-09-17T16:28:18;13.20;99.90
23073;DHT22;34865;51.046;3.732;2022-09-17T16:30:46;13.10;99.90
23073;DHT22;34865;51.046;3.732;2022-09-17T16:33:14;13.30;99.90
23073;DHT22;34865;51.046;3.732;2022-09-17T16:35:41;13.40;99.90
23073;DHT22;34865;51.046;3.732;2022-09-17T16:38:08;13.50;99.90
23073;DHT22;34865;51.046;3.732;2022-09-17T16:40:38;13.50;99.90
23073;DHT22;34865;51.046;3.732;2022-09-17T16:43:04;13.60;99.90
23073;DHT22;34865;51.046;3.732;2022-09-17T16:45:30;13.50;99.90
23073;DHT22;34865;51.046;3.732;2022-09-17T16:47:56;13.50;99.90
23073;DHT22;34865;51.046;3.732;2022-09-17T16:50:22;13.50;99.90
23073;DHT22;34865;51.046;3.732;2022-09-17T16:52:48;13.60;99.90
23073;DHT22;34865;51.046;3.732;2022-09-17T16:55:15;13.60;99.90
23073;DHT22;34865;51.046;3.732;2022-09-17T16:57:42;13.60;99.90
23073;DHT22;34865;51.046;3.732;2022-09-17T17:00:10;13.50;99.90
23073;DHT22;34865;51.046;3.732;2022-09-17T17:02:38;13.40;99.90
23073;DHT22;34865;51.046;3.732;2022-09-17T17:05:04;13.30;99.90
23073;DHT22;34865;51.046;3.732;2022-09-17T17:07:29;13.30;99.90
23073;DHT22;34865;51.046;3.732;2022-09-17T17:09:57;13.20;99.90
23073;DHT22;34865;51.046;3.732;2022-09-17T17:12:24;13.20;99.90
23073;DHT22;34865;51.046;3.732;2022-09-17T17:14:51;13.20;99.90
23073;DHT22;34865;51.046;3.732;2022-09-17T17:17:18;13.20;99.90
23073;DHT22;34865;51.046;3.732;2022-09-17T17:19:44;13.20;99.90
23073;DHT22;34865;51.046;3.732;2022-09-17T17:22:11;13.10;99.90
23073;DHT22;34865;51.046;3.732;2022-09-17T17:24:37;13.10;99.90
23073;DHT22;34865;51.046;3.732;2022-09-17T17:27:03;13.10;99.90
23073;DHT22;34865;51.046;3.732;2022-09-17T17:29:28;13.10;99.90
23073;DHT22;34865;51.046;3.732;2022-09-17T17:31:54;13.10;99.90
23073;DHT22;34865;51.046;3.732;2022-09-17T17:34:20;13.10;99.90
23073;DHT22;34865;51.046;3.732;2022-09-17T17:36:49;13.00;99.90
23073;DHT22;34865;51.046;3.732;2022-09-17T17:39:15;12.90;99.90
23073;DHT22;34865;51.046;3.732;2022-09-17T17:41:40;12.90;99.90
23073;DHT22;34865;51.046;3.732;2022-09-17T17:44:07;12.90;99.90
23073;DHT22;34865;51.046;3.732;2022-09-17T17:46:33;12.90;99.90
23073;DHT22;34865;51.046;3.732;2022-09-17T17:48:58;13.00;99.90
23073;DHT22;34865;51.046;3.732;2022-09-17T17:51:24;13.00;99.90
23073;DHT22;34865;51.046;3.732;2022-09-17T17:53:51;13.10;99.90
23073;DHT22;34865;51.046;3.732;2022-09-17T17:56:17;13.10;99.90
23073;DHT22;34865;51.046;3.732;2022-09-17T17:58:44;13.10;99.90
23073;DHT22;34865;51.046;3.732;2022-09-17T18:01:29;12.90;99.90
23073;DHT22;34865;51.046;3.732;2022-09-17T18:03:57;12.80;99.90
23073;DHT22;34865;51.046;3.732;2022-09-17T18:06:23;12.80;99.90
23073;DHT22;34865;51.046;3.732;2022-09-17T18:08:49;13.00;99.90
23073;DHT22;34865;51.046;3.732;2022-09-17T18:11:15;12.90;99.90
23073;DHT22;34865;51.046;3.732;2022-09-17T18:13:40;12.90;99.90
23073;DHT22;34865;51.046;3.732;2022-09-17T18:16:07;13.10;99.90
23073;DHT22;34865;51.046;3.732;2022-09-17T18:18:39;13.20;99.90
23073;DHT22;34865;51.046;3.732;2022-09-17T18:21:08;13.20;99.90
23073;DHT22;34865;51.046;3.732;2022-09-17T18:23:38;13.30;99.90
23073;DHT22;34865;51.046;3.732;2022-09-17T18:26:06;13.40;99.90
23073;DHT22;34865;51.046;3.732;2022-09-17T18:28:34;13.30;99.90
23073;DHT22;34865;51.046;3.732;2022-09-17T18:31:18;13.40;99.90
23073;DHT22;34865;51.046;3.732;2022-09-17T18:33:45;13.30;99.90
23073;DHT22;34865;51.046;3.732;2022-09-17T18:36:11;13.20;99.90
23073;DHT22;34865;51.046;3.732;2022-09-17T18:38:36;13.20;99.90
23073;DHT22;34865;51.046;3.732;2022-09-17T18:41:06;13.30;99.90
23073;DHT22;34865;51.046;3.732;2022-09-17T18:43:33;13.30;99.90
23073;DHT22;34865;51.046;3.732;2022-09-17T18:45:59;13.30;99.90
23073;DHT22;34865;51.046;3.732;2022-09-17T18:48:25;13.40;99.90
23073;DHT22;34865;51.046;3.732;2022-09-17T18:51:17;13.40;99.90
23073;DHT22;34865;51.046;3.732;2022-09-17T18:53:43;13.50;99.90
23073;DHT22;34865;51.046;3.732;2022-09-17T18:58:39;13.60;99.90
23073;DHT22;34865;51.046;3.732;2022-09-17T19:01:08;13.40;99.90
23073;DHT22;34865;51.046;3.732;2022-09-17T19:03:34;13.30;99.90
23073;DHT22;34865;51.046;3.732;2022-09-17T19:06:03;13.30;99.90
23073;DHT22;34865;51.046;3.732;2022-09-17T19:08:30;13.10;99.90
23073;DHT22;34865;51.046;3.732;2022-09-17T19:10:56;13.20;99.90
23073;DHT22;34865;51.046;3.732;2022-09-17T19:13:23;13.10;99.90
23073;DHT22;34865;51.046;3.732;2022-09-17T19:15:49;13.20;99.90